Search for airport 
image banner adimage banner adimage banner ad
image banner ad

3PA0 - Horst

Located in Lebanon, United States

ICAO - 3PA0, IATA -

Data provided by Airmate  

General information

Coordinates: N40°23'0" W76°27'59"
Elevation is 450 feet MSL.
Magnetic variation is -11° East
View others Airports in Pennsylvania

Operational data

Special qualification required
Current time UTC:
Current local time:
METAR: KMUI 152056Z COR 27011G19KT 10SM SCT050 BKN110 25/14 A2980 RMK AO2A SLP092 60000 T02490137 58006 COR 2057
TAF: TAF AMD KMUI 152033Z 1520/1701 30009KT 9999 FEW035 BKN050 OVC075 QNH2977INS TEMPO 1520/1521 8000 -SHRA BECMG 1600/1601 VRB06KT 9999 FEW035 BKN050 QNH2980INS BECMG 1609/1610 34012KT 9999 SKC QNH2993INS TX24/1522Z TN13/1610Z LAST NO AMDS AFT 1605 NEXT 1611
View NOTAMs / SUP AIP / TFR affecting this airport [VIEW]
Communications frequencies: [VIEW]

Runways:

RWY identifierQFULength (ft)Width (ft)SurfaceLDA (ft)
E2000100GRASS
W2000100GRASS

Airport contact information

Address: Lebanon United States

Satellite view of 3PA0